Time,TemperatureF,DewpointF,PressureIn,WindDirection,WindDirectionDegrees,WindSpeedMPH,WindSpeedGustMPH,Humidity,HourlyPrecipIn,Conditions,Clouds,dailyrainin,SoftwareType,DateUTC
2016-07-25 00:03:00,80.6,76.6,29.94,SSE,162,0.0,0.0,88,0.00,,,0.00,meteobridge,2016-07-25 04:03:00,
2016-07-25 00:08:00,80.4,76.5,29.93,SSE,162,0.0,0.0,88,0.00,,,0.00,meteobridge,2016-07-25 04:08:00,
2016-07-25 00:13:00,80.2,76.3,29.93,SSE,162,0.0,0.0,88,0.00,,,0.00,meteobridge,2016-07-25 04:13:00,
2016-07-25 00:18:00,80.2,76.6,29.94,SSE,162,0.0,0.0,89,0.00,,,0.00,meteobridge,2016-07-25 04:18:00,
2016-07-25 00:23:00,80.2,76.6,29.94,SSE,162,0.0,0.0,89,0.00,,,0.00,meteobridge,2016-07-25 04:23:00,
2016-07-25 00:28:00,80.1,76.5,29.95,SSE,161,0.0,0.0,89,0.00,,,0.00,meteobridge,2016-07-25 04:28:00,
2016-07-25 00:33:00,80.1,76.5,29.95,SSE,162,0.0,0.0,89,0.00,,,0.00,meteobridge,2016-07-25 04:33:00,
2016-07-25 00:38:00,80.1,76.8,29.95,SSE,149,0.0,0.0,90,0.00,,,0.00,meteobridge,2016-07-25 04:38:00,
2016-07-25 00:43:00,80.1,76.8,29.95,SSE,149,0.0,0.0,90,0.00,,,0.00,meteobridge,2016-07-25 04:43:00,
2016-07-25 00:48:00,79.9,76.6,29.95,SSE,149,0.0,0.0,90,0.00,,,0.00,meteobridge,2016-07-25 04:48:00,
2016-07-25 00:54:00,79.9,76.6,29.95,SSE,149,0.0,0.0,90,0.00,,,0.00,meteobridge,2016-07-25 04:54:00,
2016-07-25 00:59:00,79.7,76.5,29.95,SSE,149,0.0,0.0,90,0.00,,,0.00,meteobridge,2016-07-25 04:59:00,
2016-07-25 01:04:00,79.7,76.5,29.95,SSE,149,0.0,0.0,90,0.00,,,0.00,meteobridge,2016-07-25 05:04:00,
2016-07-25 01:09:00,79.5,76.3,29.95,SSE,150,0.0,0.0,90,0.00,,,0.00,meteobridge,2016-07-25 05:09:00,
2016-07-25 01:14:00,79.5,76.6,29.96,SSE,149,0.0,0.0,91,0.00,,,0.00,meteobridge,2016-07-25 05:14:00,
2016-07-25 01:19:00,79.5,76.6,29.96,SSE,149,0.0,0.0,91,0.00,,,0.00,meteobridge,2016-07-25 05:19:00,
2016-07-25 01:24:00,79.3,76.5,29.96,SSE,149,0.0,0.0,91,0.00,,,0.00,meteobridge,2016-07-25 05:24:00,
2016-07-25 01:29:00,79.3,76.5,29.96,SSE,149,0.0,0.0,91,0.00,,,0.00,meteobridge,2016-07-25 05:29:00,
2016-07-25 01:34:00,79.3,76.5,29.96,SSE,149,0.0,0.0,91,0.00,,,0.00,meteobridge,2016-07-25 05:34:00,
2016-07-25 01:39:00,79.2,76.3,29.96,SSE,149,0.0,0.0,91,0.00,,,0.00,meteobridge,2016-07-25 05:39:00,
2016-07-25 01:44:00,79.2,76.6,29.96,SSE,150,0.0,0.0,92,0.00,,,0.00,meteobridge,2016-07-25 05:44:00,
2016-07-25 01:49:00,79.2,76.6,29.96,SSE,149,0.0,0.0,92,0.00,,,0.00,meteobridge,2016-07-25 05:49:00,
2016-07-25 01:54:00,79.0,76.5,29.96,SSE,149,0.0,0.0,92,0.00,,,0.00,meteobridge,2016-07-25 05:54:00,
2016-07-25 01:59:00,79.0,76.5,29.96,SSE,150,0.0,0.0,92,0.00,,,0.00,meteobridge,2016-07-25 05:59:00,
2016-07-25 02:04:00,78.6,76.1,29.96,SSE,149,0.0,0.0,92,0.00,,,0.00,meteobridge,2016-07-25 06:04:00,
2016-07-25 02:09:00,78.6,76.1,29.96,SSE,149,0.0,0.0,92,0.00,,,0.00,meteobridge,2016-07-25 06:09:00,
2016-07-25 02:14:00,78.6,76.1,29.97,SSE,149,0.0,0.0,92,0.00,,,0.00,meteobridge,2016-07-25 06:14:00,
2016-07-25 02:19:00,78.4,76.3,29.97,SSE,150,0.0,0.0,93,0.00,,,0.00,meteobridge,2016-07-25 06:19:00,
2016-07-25 02:24:00,78.4,76.3,29.97,SSE,150,0.0,0.0,93,0.00,,,0.00,meteobridge,2016-07-25 06:24:00,
2016-07-25 02:29:00,78.3,76.1,29.97,SSE,149,0.0,0.0,93,0.00,,,0.00,meteobridge,2016-07-25 06:29:00,
2016-07-25 02:34:00,78.3,76.1,29.97,SSE,149,0.0,0.0,93,0.00,,,0.00,meteobridge,2016-07-25 06:34:00,
2016-07-25 02:40:00,78.1,75.9,29.97,SSE,149,0.0,0.0,93,0.00,,,0.00,meteobridge,2016-07-25 06:40:00,
2016-07-25 02:45:00,78.1,76.3,29.97,SSE,149,0.0,0.0,94,0.00,,,0.00,meteobridge,2016-07-25 06:45:00,
2016-07-25 02:50:00,78.1,76.3,29.97,SSE,150,0.0,0.0,94,0.00,,,0.00,meteobridge,2016-07-25 06:50:00,
2016-07-25 02:55:00,78.1,76.3,29.97,SSE,149,0.0,0.0,94,0.00,,,0.00,meteobridge,2016-07-25 06:55:00,
2016-07-25 03:00:00,78.1,76.5,29.97,SSE,149,0.0,0.0,95,0.00,,,0.00,meteobridge,2016-07-25 07:00:00,
2016-07-25 03:05:00,78.1,76.5,29.97,ESE,116,0.0,0.0,95,0.00,,,0.00,meteobridge,2016-07-25 07:05:00,
2016-07-25 03:10:00,78.1,76.5,29.97,ESE,116,0.0,0.0,95,0.00,,,0.00,meteobridge,2016-07-25 07:10:00,
2016-07-25 03:15:00,78.1,76.5,29.97,ESE,116,0.0,0.0,95,0.00,,,0.00,meteobridge,2016-07-25 07:15:00,
2016-07-25 03:20:00,78.1,76.5,29.97,ESE,116,0.0,0.0,95,0.00,,,0.00,meteobridge,2016-07-25 07:20:00,
2016-07-25 03:25:00,78.1,76.5,29.97,ESE,116,0.0,0.0,95,0.00,,,0.00,meteobridge,2016-07-25 07:25:00,
2016-07-25 03:30:00,78.1,76.5,29.97,ESE,116,0.0,0.0,95,0.00,,,0.00,meteobridge,2016-07-25 07:30:00,
2016-07-25 03:35:00,78.1,76.5,29.97,ESE,116,0.0,0.0,95,0.00,,,0.00,meteobridge,2016-07-25 07:35:00,
2016-07-25 03:40:00,78.1,76.5,29.96,ESE,116,0.9,1.0,95,0.00,,,0.00,meteobridge,2016-07-25 07:40:00,
2016-07-25 03:45:00,78.1,76.5,29.96,ESE,116,0.0,0.0,95,0.00,,,0.00,meteobridge,2016-07-25 07:45:00,
2016-07-25 03:50:00,78.1,76.5,29.97,ESE,116,0.0,0.0,95,0.00,,,0.00,meteobridge,2016-07-25 07:50:00,
2016-07-25 03:55:00,77.9,76.3,29.97,ESE,116,0.0,0.0,95,0.00,,,0.00,meteobridge,2016-07-25 07:55:00,
2016-07-25 04:00:00,77.9,76.3,29.97,ESE,116,0.0,0.0,95,0.00,,,0.00,meteobridge,2016-07-25 08:00:00,
2016-07-25 04:05:00,77.7,76.1,29.96,ESE,116,0.0,0.0,95,0.00,,,0.00,meteobridge,2016-07-25 08:05:00,
2016-07-25 04:10:00,77.7,76.5,29.97,ESE,116,0.0,0.0,96,0.00,,,0.00,meteobridge,2016-07-25 08:10:00,
2016-07-25 04:15:00,77.7,76.5,29.96,SSE,168,0.0,0.0,96,0.00,,,0.00,meteobridge,2016-07-25 08:15:00,
2016-07-25 04:20:00,77.7,76.5,29.96,SSE,168,0.0,0.0,96,0.00,,,0.00,meteobridge,2016-07-25 08:20:00,
2016-07-25 04:25:00,77.5,76.3,29.96,SSE,168,0.0,0.0,96,0.00,,,0.00,meteobridge,2016-07-25 08:25:00,
2016-07-25 04:31:00,77.5,76.3,29.96,SSE,168,0.0,0.0,96,0.00,,,0.00,meteobridge,2016-07-25 08:31:00,
2016-07-25 04:36:00,77.5,76.3,29.96,South,169,0.0,0.0,96,0.00,,,0.00,meteobridge,2016-07-25 08:36:00,
2016-07-25 04:41:00,77.5,76.3,29.96,SSE,168,0.0,0.0,96,0.00,,,0.00,meteobridge,2016-07-25 08:41:00,
2016-07-25 04:46:00,77.5,76.3,29.96,SSE,168,0.0,0.0,96,0.00,,,0.00,meteobridge,2016-07-25 08:46:00,
2016-07-25 04:51:00,77.4,76.1,29.96,South,169,0.0,1.0,96,0.00,,,0.00,meteobridge,2016-07-25 08:51:00,
2016-07-25 04:56:00,77.4,76.5,29.96,SE,142,0.0,1.0,97,0.00,,,0.00,meteobridge,2016-07-25 08:56:00,
2016-07-25 05:01:00,77.4,76.5,29.95,SE,141,0.0,0.0,97,0.00,,,0.00,meteobridge,2016-07-25 09:01:00,
2016-07-25 05:06:00,77.4,76.5,29.96,SE,141,0.0,1.0,97,0.00,,,0.00,meteobridge,2016-07-25 09:06:00,
2016-07-25 05:11:00,77.4,76.5,29.95,SE,141,0.0,1.0,97,0.00,,,0.00,meteobridge,2016-07-25 09:11:00,
2016-07-25 05:16:00,77.4,76.5,29.95,SE,140,0.0,1.0,97,0.00,,,0.00,meteobridge,2016-07-25 09:16:00,
2016-07-25 05:21:00,77.4,76.5,29.95,SSE,149,0.0,0.0,97,0.00,,,0.00,meteobridge,2016-07-25 09:21:00,
2016-07-25 05:26:00,77.4,76.5,29.95,SSE,148,0.0,1.0,97,0.00,,,0.00,meteobridge,2016-07-25 09:26:00,
2016-07-25 05:31:00,77.4,76.5,29.95,SSE,150,0.0,0.0,97,0.00,,,0.00,meteobridge,2016-07-25 09:31:00,
2016-07-25 05:36:00,77.4,76.5,29.95,SSE,149,0.0,0.0,97,0.00,,,0.00,meteobridge,2016-07-25 09:36:00,
2016-07-25 05:41:00,77.4,76.5,29.95,SSE,149,0.0,0.0,97,0.00,,,0.00,meteobridge,2016-07-25 09:41:00,
2016-07-25 05:46:00,77.4,76.5,29.95,SE,137,0.0,1.0,97,0.00,,,0.00,meteobridge,2016-07-25 09:46:00,
2016-07-25 05:51:00,77.4,76.5,29.95,SE,137,0.0,1.0,97,0.00,,,0.00,meteobridge,2016-07-25 09:51:00,
2016-07-25 05:56:00,77.4,76.5,29.95,SE,137,0.0,0.0,97,0.00,,,0.00,meteobridge,2016-07-25 09:56:00,
2016-07-25 06:01:00,77.4,76.5,29.95,SE,127,0.0,2.0,97,0.00,,,0.00,meteobridge,2016-07-25 10:01:00,
2016-07-25 06:06:00,77.5,76.6,29.95,SE,126,0.0,0.0,97,0.00,,,0.00,meteobridge,2016-07-25 10:06:00,
2016-07-25 06:11:00,77.5,76.6,29.95,SE,126,0.0,0.0,97,0.00,,,0.00,meteobridge,2016-07-25 10:11:00,
2016-07-25 06:16:00,77.4,76.5,29.95,SE,126,0.0,0.0,97,0.00,,,0.00,meteobridge,2016-07-25 10:16:00,
2016-07-25 06:21:00,77.4,76.5,29.95,SE,126,0.0,0.0,97,0.00,,,0.00,meteobridge,2016-07-25 10:21:00,
2016-07-25 06:26:00,77.4,76.5,29.95,SE,131,0.0,1.0,97,0.00,,,0.00,meteobridge,2016-07-25 10:26:00,
2016-07-25 06:31:00,77.4,76.5,29.95,SE,131,0.0,0.0,97,0.00,,,0.00,meteobridge,2016-07-25 10:31:00,
2016-07-25 06:36:00,77.4,76.5,29.95,SE,132,0.9,2.0,97,0.00,,,0.00,meteobridge,2016-07-25 10:36:00,
2016-07-25 06:41:00,77.4,76.5,29.96,SE,132,0.0,1.0,97,0.00,,,0.00,meteobridge,2016-07-25 10:41:00,
2016-07-25 06:46:00,77.4,76.5,29.96,SE,132,0.0,0.0,97,0.00,,,0.00,meteobridge,2016-07-25 10:46:00,
2016-07-25 06:51:00,77.4,76.5,29.96,SE,132,0.0,0.0,97,0.00,,,0.00,meteobridge,2016-07-25 10:51:00,
2016-07-25 06:56:00,77.4,76.5,29.96,SE,132,0.0,0.0,97,0.00,,,0.00,meteobridge,2016-07-25 10:56:00,
2016-07-25 07:01:00,77.4,76.5,29.95,SE,132,0.0,1.0,97,0.00,,,0.00,meteobridge,2016-07-25 11:01:00,
2016-07-25 07:07:00,77.4,76.5,29.96,SE,131,0.9,1.0,97,0.00,,,0.00,meteobridge,2016-07-25 11:07:00,
2016-07-25 07:12:00,77.4,76.5,29.96,SE,132,0.0,1.0,97,0.00,,,0.00,meteobridge,2016-07-25 11:12:00,
2016-07-25 07:17:00,77.4,76.5,29.96,SE,131,0.0,0.0,97,0.00,,,0.00,meteobridge,2016-07-25 11:17:00,
2016-07-25 07:22:00,77.4,76.5,29.96,SE,135,0.0,1.0,97,0.00,,,0.00,meteobridge,2016-07-25 11:22:00,
2016-07-25 07:27:00,77.5,76.6,29.97,SE,134,0.0,1.0,97,0.00,,,0.00,meteobridge,2016-07-25 11:27:00,
2016-07-25 07:32:00,77.7,76.8,29.97,SE,133,0.0,1.0,97,0.00,,,0.00,meteobridge,2016-07-25 11:32:00,
2016-07-25 07:37:00,77.7,76.8,29.97,SE,137,0.0,1.0,97,0.00,,,0.00,meteobridge,2016-07-25 11:37:00,
2016-07-25 07:42:00,77.9,77.0,29.96,SE,136,0.0,1.0,97,0.00,,,0.00,meteobridge,2016-07-25 11:42:00,
2016-07-25 07:47:00,78.1,77.2,29.96,SE,136,0.0,1.0,97,0.00,,,0.00,meteobridge,2016-07-25 11:47:00,
2016-07-25 07:52:00,78.3,77.4,29.97,SE,136,0.0,2.0,97,0.00,,,0.00,meteobridge,2016-07-25 11:52:00,
2016-07-25 07:57:00,78.4,77.2,29.96,SSE,149,0.0,3.0,96,0.00,,,0.00,meteobridge,2016-07-25 11:57:00,
2016-07-25 08:02:00,78.6,77.4,29.96,SSE,149,0.0,0.0,96,0.00,,,0.00,meteobridge,2016-07-25 12:02:00,
2016-07-25 08:07:00,78.6,77.4,29.96,SSE,149,0.0,0.0,96,0.00,,,0.00,meteobridge,2016-07-25 12:07:00,
2016-07-25 08:12:00,78.8,77.5,29.96,SSE,149,0.0,0.0,96,0.00,,,0.00,meteobridge,2016-07-25 12:12:00,
2016-07-25 08:17:00,79.0,77.7,29.96,SSE,149,0.0,0.0,96,0.00,,,0.00,meteobridge,2016-07-25 12:17:00,
2016-07-25 08:22:00,79.2,77.5,29.96,SSE,150,0.0,1.0,95,0.00,,,0.00,meteobridge,2016-07-25 12:22:00,
2016-07-25 08:27:00,79.3,77.7,29.96,SE,136,0.9,1.0,95,0.00,,,0.00,meteobridge,2016-07-25 12:27:00,
2016-07-25 08:32:00,79.9,78.3,29.96,ESE,123,0.0,2.0,95,0.00,,,0.00,meteobridge,2016-07-25 12:32:00,
2016-07-25 08:37:00,80.1,78.3,29.96,SE,134,0.0,0.0,94,0.00,,,0.00,meteobridge,2016-07-25 12:37:00,
2016-07-25 08:42:00,80.4,78.3,29.96,SSE,157,2.0,2.0,93,0.00,,,0.00,meteobridge,2016-07-25 12:42:00,
2016-07-25 08:47:00,80.8,78.8,29.96,SSE,154,2.0,2.0,94,0.00,,,0.00,meteobridge,2016-07-25 12:47:00,
2016-07-25 08:52:00,80.8,78.6,29.96,SE,143,0.9,2.0,93,0.00,,,0.00,meteobridge,2016-07-25 12:52:00,
2016-07-25 08:57:00,81.0,78.8,29.96,SE,140,0.9,1.0,93,0.00,,,0.00,meteobridge,2016-07-25 12:57:00,
2016-07-25 09:03:00,81.0,78.8,29.96,SE,136,0.0,1.0,93,0.00,,,0.00,meteobridge,2016-07-25 13:03:00,
2016-07-25 09:08:00,81.1,79.0,29.96,SSE,153,0.9,1.0,93,0.00,,,0.00,meteobridge,2016-07-25 13:08:00,
2016-07-25 09:13:00,81.1,78.6,29.96,SE,145,2.0,2.0,92,0.00,,,0.00,meteobridge,2016-07-25 13:13:00,
2016-07-25 09:18:00,81.3,78.8,29.96,SE,128,2.0,3.0,92,0.00,,,0.00,meteobridge,2016-07-25 13:18:00,
2016-07-25 09:23:00,81.9,79.3,29.96,SE,134,0.9,2.0,92,0.00,,,0.00,meteobridge,2016-07-25 13:23:00,
2016-07-25 09:28:00,82.6,79.3,29.96,SE,139,0.0,2.0,90,0.00,,,0.00,meteobridge,2016-07-25 13:28:00,
2016-07-25 09:33:00,83.5,80.2,29.96,SW,230,0.0,1.0,90,0.00,,,0.00,meteobridge,2016-07-25 13:33:00,
2016-07-25 09:38:00,84.0,80.1,29.96,SE,141,0.0,1.0,88,0.00,,,0.00,meteobridge,2016-07-25 13:38:00,
2016-07-25 09:43:00,84.6,79.9,29.96,SE,143,0.9,2.0,86,0.00,,,0.00,meteobridge,2016-07-25 13:43:00,
2016-07-25 09:48:00,84.9,81.0,29.96,East,96,0.0,2.0,88,0.00,,,0.00,meteobridge,2016-07-25 13:48:00,
2016-07-25 09:53:00,85.8,80.8,29.96,WSW,239,0.0,1.0,85,0.00,,,0.00,meteobridge,2016-07-25 13:53:00,
2016-07-25 09:58:00,86.7,81.7,29.96,SE,127,0.0,1.0,85,0.00,,,0.00,meteobridge,2016-07-25 13:58:00,
2016-07-25 10:03:00,87.4,81.3,29.96,SSW,198,0.0,1.0,82,0.00,,,0.00,meteobridge,2016-07-25 14:03:00,
2016-07-25 10:09:00,88.0,81.3,29.97,ESE,113,0.0,0.0,81,0.00,,,0.00,meteobridge,2016-07-25 14:09:00,
2016-07-25 10:14:00,88.3,81.7,29.97,West,267,0.0,1.0,81,0.00,,,0.00,meteobridge,2016-07-25 14:14:00,
2016-07-25 10:19:00,88.5,81.9,29.97,ESE,115,0.0,1.0,81,0.00,,,0.00,meteobridge,2016-07-25 14:19:00,
2016-07-25 10:24:00,89.1,82.0,29.97,SE,136,0.9,1.0,80,0.00,,,0.00,meteobridge,2016-07-25 14:24:00,
2016-07-25 10:29:00,89.2,81.5,29.97,ESE,123,0.0,2.0,78,0.00,,,0.00,meteobridge,2016-07-25 14:29:00,
2016-07-25 10:34:00,88.9,81.5,29.97,SE,124,0.0,4.0,79,0.00,,,0.00,meteobridge,2016-07-25 14:34:00,
2016-07-25 10:39:00,88.9,82.2,29.97,SE,134,2.0,2.0,81,0.00,,,0.00,meteobridge,2016-07-25 14:39:00,
2016-07-25 10:44:00,89.2,82.2,29.97,SE,125,0.0,1.0,80,0.00,,,0.00,meteobridge,2016-07-25 14:44:00,
2016-07-25 10:49:00,89.2,81.9,29.97,SSE,150,0.0,1.0,79,0.00,,,0.00,meteobridge,2016-07-25 14:49:00,
2016-07-25 10:54:00,89.4,82.4,29.96,SE,141,0.0,2.0,80,0.00,,,0.00,meteobridge,2016-07-25 14:54:00,
2016-07-25 10:59:00,90.0,82.9,29.97,SSE,158,0.0,0.0,80,0.00,,,0.00,meteobridge,2016-07-25 14:59:00,
2016-07-25 11:04:00,90.3,81.7,29.97,ESE,110,2.0,4.0,76,0.00,,,0.00,meteobridge,2016-07-25 15:04:00,
2016-07-25 11:09:00,89.8,81.1,29.97,ESE,103,0.9,4.0,76,0.00,,,0.00,meteobridge,2016-07-25 15:09:00,
2016-07-25 11:14:00,90.1,81.5,29.97,ESE,103,0.0,1.0,76,0.00,,,0.00,meteobridge,2016-07-25 15:14:00,
2016-07-25 11:19:00,90.7,82.4,29.97,SSE,150,0.0,1.0,77,0.00,,,0.00,meteobridge,2016-07-25 15:19:00,
2016-07-25 11:24:00,91.2,82.6,29.97,SE,130,0.9,1.0,76,0.00,,,0.00,meteobridge,2016-07-25 15:24:00,
2016-07-25 11:29:00,91.8,82.8,29.97,SE,126,2.0,3.0,75,0.00,,,0.00,meteobridge,2016-07-25 15:29:00,
2016-07-25 11:34:00,91.9,82.4,29.97,SE,130,0.0,1.0,74,0.00,,,0.00,meteobridge,2016-07-25 15:34:00,
2016-07-25 11:39:00,91.6,81.7,29.98,East,84,2.0,2.0,73,0.00,,,0.00,meteobridge,2016-07-25 15:39:00,
2016-07-25 11:44:00,91.0,81.1,29.97,SE,144,2.0,2.0,73,0.00,,,0.00,meteobridge,2016-07-25 15:44:00,
2016-07-25 11:50:00,91.0,81.5,29.97,ESE,103,0.0,1.0,74,0.00,,,0.00,meteobridge,2016-07-25 15:50:00,
2016-07-25 11:55:00,90.9,80.1,29.97,SSE,153,0.0,2.0,71,0.00,,,0.00,meteobridge,2016-07-25 15:55:00,
2016-07-25 12:00:00,90.9,81.0,29.97,ESE,113,0.0,0.0,73,0.00,,,0.00,meteobridge,2016-07-25 16:00:00,
2016-07-25 12:05:00,90.9,81.0,29.98,ESE,120,0.0,1.0,73,0.00,,,0.00,meteobridge,2016-07-25 16:05:00,
2016-07-25 12:10:00,90.7,82.4,29.97,West,260,0.0,1.0,77,0.00,,,0.00,meteobridge,2016-07-25 16:10:00,
2016-07-25 12:15:00,90.5,81.9,29.98,SE,129,0.0,1.0,76,0.00,,,0.00,meteobridge,2016-07-25 16:15:00,
2016-07-25 12:20:00,90.3,81.7,29.97,WSW,251,0.0,1.0,76,0.00,,,0.00,meteobridge,2016-07-25 16:20:00,
2016-07-25 12:25:00,90.3,81.7,29.97,ESE,108,0.0,1.0,76,0.00,,,0.00,meteobridge,2016-07-25 16:25:00,
2016-07-25 12:30:00,90.7,83.3,29.97,SE,138,0.9,1.0,79,0.00,,,0.00,meteobridge,2016-07-25 16:30:00,
2016-07-25 12:35:00,91.2,82.6,29.97,SE,144,0.0,1.0,76,0.00,,,0.00,meteobridge,2016-07-25 16:35:00,
2016-07-25 12:40:00,91.8,82.2,29.97,ESE,103,0.0,1.0,74,0.00,,,0.00,meteobridge,2016-07-25 16:40:00,
2016-07-25 12:45:00,91.9,81.7,29.97,West,261,0.0,1.0,72,0.00,,,0.00,meteobridge,2016-07-25 16:45:00,
2016-07-25 12:50:00,91.8,82.8,29.97,WSW,255,0.0,1.0,75,0.00,,,0.00,meteobridge,2016-07-25 16:50:00,
2016-07-25 12:55:00,91.9,82.4,29.97,East,91,0.9,1.0,74,0.00,,,0.00,meteobridge,2016-07-25 16:55:00,
2016-07-25 13:00:00,91.9,80.8,29.97,WSW,247,0.0,1.0,70,0.00,,,0.00,meteobridge,2016-07-25 17:00:00,
2016-07-25 13:05:00,92.7,81.5,29.97,SE,142,0.0,1.0,70,0.00,,,0.00,meteobridge,2016-07-25 17:05:00,
2016-07-25 13:10:00,92.8,80.8,29.97,SSW,193,0.0,1.0,68,0.00,,,0.00,meteobridge,2016-07-25 17:10:00,
2016-07-25 13:15:00,93.0,78.6,29.96,SW,233,0.0,2.0,63,0.00,,,0.00,meteobridge,2016-07-25 17:15:00,
2016-07-25 13:20:00,93.0,79.5,29.96,WSW,237,0.0,2.0,65,0.00,,,0.00,meteobridge,2016-07-25 17:20:00,
2016-07-25 13:25:00,93.0,80.4,29.96,East,86,0.0,1.0,67,0.00,,,0.00,meteobridge,2016-07-25 17:25:00,
2016-07-25 13:30:00,93.0,79.5,29.96,SW,227,0.0,1.0,65,0.00,,,0.00,meteobridge,2016-07-25 17:30:00,
2016-07-25 13:36:00,93.6,80.4,29.96,SW,234,0.9,4.0,66,0.00,,,0.00,meteobridge,2016-07-25 17:36:00,
2016-07-25 13:41:00,93.7,79.2,29.96,WSW,238,2.0,2.0,63,0.00,,,0.00,meteobridge,2016-07-25 17:41:00,
2016-07-25 13:46:00,93.7,79.7,29.96,SW,217,0.0,2.0,64,0.00,,,0.00,meteobridge,2016-07-25 17:46:00,
2016-07-25 13:51:00,93.7,81.1,29.96,ESE,102,0.0,2.0,67,0.00,,,0.00,meteobridge,2016-07-25 17:51:00,
2016-07-25 13:56:00,94.3,81.7,29.96,East,98,0.0,1.0,67,0.00,,,0.00,meteobridge,2016-07-25 17:56:00,
2016-07-25 14:01:00,94.6,80.1,29.95,East,100,2.0,3.0,63,0.00,,,0.00,meteobridge,2016-07-25 18:01:00,
2016-07-25 14:06:00,94.8,82.6,29.95,SSE,155,2.0,2.0,68,0.00,,,0.00,meteobridge,2016-07-25 18:06:00,
2016-07-25 14:11:00,95.4,81.7,29.95,East,94,0.0,2.0,65,0.00,,,0.00,meteobridge,2016-07-25 18:11:00,
2016-07-25 14:16:00,95.5,81.9,29.95,ESE,120,0.9,2.0,65,0.00,,,0.00,meteobridge,2016-07-25 18:16:00,
2016-07-25 14:21:00,95.7,81.5,29.94,ESE,120,0.0,1.0,64,0.00,,,0.00,meteobridge,2016-07-25 18:21:00,
2016-07-25 14:26:00,95.7,81.1,29.94,East,82,0.0,1.0,63,0.00,,,0.00,meteobridge,2016-07-25 18:26:00,
2016-07-25 14:31:00,94.8,81.1,29.94,WSW,251,0.0,1.0,65,0.00,,,0.00,meteobridge,2016-07-25 18:31:00,
2016-07-25 14:36:00,93.9,80.8,29.95,SSW,211,2.0,2.0,66,0.00,,,0.00,meteobridge,2016-07-25 18:36:00,
2016-07-25 14:41:00,92.8,82.0,29.95,SSE,147,0.0,1.0,71,0.00,,,0.00,meteobridge,2016-07-25 18:41:00,
2016-07-25 14:46:00,93.2,84.0,29.94,ESE,122,0.0,1.0,75,0.00,,,0.00,meteobridge,2016-07-25 18:46:00,
2016-07-25 14:51:00,94.3,81.7,29.94,ESE,103,0.0,1.0,67,0.00,,,0.00,meteobridge,2016-07-25 18:51:00,
2016-07-25 14:56:00,94.8,81.1,29.94,SE,137,0.9,2.0,65,0.00,,,0.00,meteobridge,2016-07-25 18:56:00,
2016-07-25 15:02:00,94.5,81.3,29.93,ESE,112,0.0,0.0,66,0.00,,,0.00,meteobridge,2016-07-25 19:02:00,
2016-07-25 15:07:00,95.0,81.9,29.93,NNE,23,0.0,1.0,66,0.00,,,0.00,meteobridge,2016-07-25 19:07:00,
2016-07-25 15:12:00,95.2,80.1,29.94,SSW,193,0.9,2.0,62,0.00,,,0.00,meteobridge,2016-07-25 19:12:00,
2016-07-25 15:17:00,95.2,79.5,29.94,SE,129,0.0,2.0,61,0.00,,,0.00,meteobridge,2016-07-25 19:17:00,
2016-07-25 15:22:00,95.4,81.7,29.93,WNW,286,0.9,1.0,65,0.00,,,0.00,meteobridge,2016-07-25 19:22:00,
2016-07-25 15:27:00,95.2,78.6,29.94,East,98,0.0,0.0,59,0.00,,,0.00,meteobridge,2016-07-25 19:27:00,
2016-07-25 15:32:00,94.6,78.1,29.94,SW,221,0.9,3.0,59,0.00,,,0.00,meteobridge,2016-07-25 19:32:00,
2016-07-25 15:37:00,93.7,78.3,29.93,East,97,2.0,3.0,61,0.00,,,0.00,meteobridge,2016-07-25 19:37:00,
2016-07-25 15:42:00,93.0,76.1,29.93,SW,222,0.9,3.0,58,0.00,,,0.00,meteobridge,2016-07-25 19:42:00,
2016-07-25 15:47:00,92.7,76.3,29.93,SSE,150,2.0,2.0,59,0.00,,,0.00,meteobridge,2016-07-25 19:47:00,
2016-07-25 15:52:00,92.5,77.0,29.93,ESE,103,0.9,2.0,61,0.00,,,0.00,meteobridge,2016-07-25 19:52:00,
2016-07-25 15:57:00,92.5,77.0,29.93,WSW,245,0.9,3.0,61,0.00,,,0.00,meteobridge,2016-07-25 19:57:00,
2016-07-25 16:02:00,92.3,76.8,29.92,WSW,242,0.9,2.0,61,0.00,,,0.00,meteobridge,2016-07-25 20:02:00,
2016-07-25 16:07:00,92.5,76.6,29.92,WSW,255,0.0,1.0,60,0.00,,,0.00,meteobridge,2016-07-25 20:07:00,
2016-07-25 16:08:00,92.5,77.0,29.92,SW,217,0.0,1.0,61,0.00,,,0.00,meteobridge,2016-07-25 20:08:00,
2016-07-25 16:13:00,92.5,79.0,29.92,SSW,211,0.0,2.0,65,0.00,,,0.00,meteobridge,2016-07-25 20:13:00,
2016-07-25 16:18:00,92.5,78.1,29.92,SSE,158,0.0,0.0,63,0.00,,,0.00,meteobridge,2016-07-25 20:18:00,
2016-07-25 16:23:00,92.7,75.7,29.93,SE,140,0.0,1.0,58,0.00,,,0.00,meteobridge,2016-07-25 20:23:00,
2016-07-25 16:28:00,92.7,74.1,29.93,ESE,107,0.0,2.0,55,0.00,,,0.00,meteobridge,2016-07-25 20:28:00,
2016-07-25 16:33:00,92.5,76.1,29.93,SSE,167,0.0,0.0,59,0.00,,,0.00,meteobridge,2016-07-25 20:33:00,
2016-07-25 16:38:00,92.5,77.5,29.93,SW,226,0.0,1.0,62,0.00,,,0.00,meteobridge,2016-07-25 20:38:00,
2016-07-25 16:43:00,92.5,77.0,29.92,ENE,62,0.0,1.0,61,0.00,,,0.00,meteobridge,2016-07-25 20:43:00,
2016-07-25 16:48:00,92.1,75.2,29.92,SW,214,0.0,1.0,58,0.00,,,0.00,meteobridge,2016-07-25 20:48:00,
2016-07-25 16:53:00,92.1,76.3,29.92,SE,128,0.0,1.0,60,0.00,,,0.00,meteobridge,2016-07-25 20:53:00,
2016-07-25 16:58:00,92.3,75.9,29.92,ENE,70,0.0,1.0,59,0.00,,,0.00,meteobridge,2016-07-25 20:58:00,
2016-07-25 17:03:00,92.5,76.1,29.92,SE,124,0.0,1.0,59,0.00,,,0.00,meteobridge,2016-07-25 21:03:00,
2016-07-25 17:08:00,92.8,76.8,29.92,SE,131,0.0,1.0,60,0.00,,,0.00,meteobridge,2016-07-25 21:08:00,
2016-07-25 17:13:00,92.8,76.5,29.92,SE,131,0.0,1.0,59,0.00,,,0.00,meteobridge,2016-07-25 21:13:00,
2016-07-25 17:18:00,92.8,77.4,29.93,East,87,0.0,1.0,61,0.00,,,0.00,meteobridge,2016-07-25 21:18:00,
2016-07-25 17:23:00,92.7,77.2,29.92,South,175,0.0,1.0,61,0.00,,,0.00,meteobridge,2016-07-25 21:23:00,
2016-07-25 17:28:00,92.7,75.7,29.92,SSW,211,0.0,1.0,58,0.00,,,0.00,meteobridge,2016-07-25 21:28:00,
2016-07-25 17:33:00,92.5,76.6,29.92,SSW,201,0.0,0.0,60,0.00,,,0.00,meteobridge,2016-07-25 21:33:00,
2016-07-25 17:39:00,92.5,78.4,29.92,SE,135,0.0,0.0,64,0.00,,,0.00,meteobridge,2016-07-25 21:39:00,
2016-07-25 17:49:00,92.5,77.5,29.92,ESE,123,0.9,1.0,62,0.00,,,0.00,meteobridge,2016-07-25 21:49:00,
2016-07-25 17:54:00,92.3,77.4,29.92,ESE,108,0.0,1.0,62,0.00,,,0.00,meteobridge,2016-07-25 21:54:00,
2016-07-25 17:59:00,92.1,76.3,29.92,East,99,0.0,1.0,60,0.00,,,0.00,meteobridge,2016-07-25 21:59:00,
2016-07-25 18:04:00,91.9,77.5,29.92,SSE,162,0.0,0.0,63,0.00,,,0.00,meteobridge,2016-07-25 22:04:00,
2016-07-25 18:09:00,91.4,76.5,29.92,SW,214,0.0,1.0,62,0.00,,,0.00,meteobridge,2016-07-25 22:09:00,
2016-07-25 18:14:00,90.9,77.0,29.92,SW,214,0.0,1.0,64,0.00,,,0.00,meteobridge,2016-07-25 22:14:00,
2016-07-25 18:19:00,90.3,75.9,29.92,East,101,0.0,1.0,63,0.00,,,0.00,meteobridge,2016-07-25 22:19:00,
2016-07-25 18:24:00,90.0,76.1,29.92,SSE,162,0.0,1.0,64,0.00,,,0.00,meteobridge,2016-07-25 22:24:00,
2016-07-25 18:29:00,89.4,75.6,29.92,West,259,0.9,2.0,64,0.00,,,0.00,meteobridge,2016-07-25 22:29:00,
2016-07-25 18:34:00,89.2,76.5,29.92,WSW,245,0.0,0.0,66,0.00,,,0.00,meteobridge,2016-07-25 22:34:00,
2016-07-25 18:39:00,89.2,75.9,29.92,WSW,245,0.0,1.0,65,0.00,,,0.00,meteobridge,2016-07-25 22:39:00,
2016-07-25 18:44:00,88.9,76.1,29.92,WSW,243,0.0,1.0,66,0.00,,,0.00,meteobridge,2016-07-25 22:44:00,
2016-07-25 18:50:00,88.5,75.7,29.92,WSW,257,0.0,1.0,66,0.00,,,0.00,meteobridge,2016-07-25 22:50:00,
2016-07-25 18:55:00,88.3,75.6,29.92,West,262,0.0,1.0,66,0.00,,,0.00,meteobridge,2016-07-25 22:55:00,
2016-07-25 19:00:00,88.3,75.9,29.93,WNW,287,0.0,1.0,67,0.00,,,0.00,meteobridge,2016-07-25 23:00:00,
2016-07-25 19:05:00,88.2,75.7,29.93,West,266,0.0,0.0,67,0.00,,,0.00,meteobridge,2016-07-25 23:05:00,
2016-07-25 19:10:00,88.2,76.6,29.93,SE,146,0.0,0.0,69,0.00,,,0.00,meteobridge,2016-07-25 23:10:00,
2016-07-25 19:15:00,88.0,76.1,29.93,WSW,257,0.9,2.0,68,0.00,,,0.00,meteobridge,2016-07-25 23:15:00,
2016-07-25 19:20:00,87.6,76.1,29.93,WSW,257,0.0,0.0,69,0.00,,,0.00,meteobridge,2016-07-25 23:20:00,
2016-07-25 19:25:00,87.6,76.6,29.93,WSW,258,0.0,1.0,70,0.00,,,0.00,meteobridge,2016-07-25 23:25:00,
2016-07-25 19:30:00,87.4,75.9,29.93,South,187,0.0,0.0,69,0.00,,,0.00,meteobridge,2016-07-25 23:30:00,
2016-07-25 19:35:00,87.1,75.7,29.93,SE,146,0.0,0.0,69,0.00,,,0.00,meteobridge,2016-07-25 23:35:00,
2016-07-25 19:40:00,86.7,75.7,29.93,WSW,249,0.0,0.0,70,0.00,,,0.00,meteobridge,2016-07-25 23:40:00,
2016-07-25 19:45:00,86.7,76.1,29.93,WSW,249,0.0,0.0,71,0.00,,,0.00,meteobridge,2016-07-25 23:45:00,
2016-07-25 19:50:00,86.5,75.9,29.94,WSW,248,0.0,0.0,71,0.00,,,0.00,meteobridge,2016-07-25 23:50:00,
2016-07-25 19:55:00,86.5,76.5,29.93,WSW,248,0.0,0.0,72,0.00,,,0.00,meteobridge,2016-07-25 23:55:00,
2016-07-25 20:00:00,86.5,76.5,29.94,WSW,248,0.0,0.0,72,0.00,,,0.00,meteobridge,2016-07-26 00:00:00,
2016-07-25 20:05:00,86.4,76.6,29.94,WSW,248,0.0,0.0,73,0.00,,,0.00,meteobridge,2016-07-26 00:05:00,
2016-07-25 20:10:00,86.2,76.5,29.94,WSW,248,0.0,0.0,73,0.00,,,0.00,meteobridge,2016-07-26 00:10:00,
2016-07-25 20:15:00,86.0,76.3,29.94,WSW,248,0.0,0.0,73,0.00,,,0.00,meteobridge,2016-07-26 00:15:00,
2016-07-25 20:20:00,85.8,76.1,29.94,WSW,248,0.0,0.0,73,0.00,,,0.00,meteobridge,2016-07-26 00:20:00,
2016-07-25 20:25:00,85.6,75.9,29.94,WSW,248,0.0,0.0,73,0.00,,,0.00,meteobridge,2016-07-26 00:25:00,
2016-07-25 20:30:00,85.5,76.3,29.95,WSW,248,0.0,0.0,74,0.00,,,0.00,meteobridge,2016-07-26 00:30:00,
2016-07-25 20:35:00,85.5,76.6,29.95,WSW,248,0.0,0.0,75,0.00,,,0.00,meteobridge,2016-07-26 00:35:00,
2016-07-25 20:40:00,85.3,76.5,29.94,WSW,248,0.0,0.0,75,0.00,,,0.00,meteobridge,2016-07-26 00:40:00,
2016-07-25 20:45:00,84.9,76.1,29.94,WSW,248,0.0,0.0,75,0.00,,,0.00,meteobridge,2016-07-26 00:45:00,
2016-07-25 20:51:00,84.7,75.9,29.95,WSW,248,0.0,0.0,75,0.00,,,0.00,meteobridge,2016-07-26 00:51:00,
2016-07-25 20:56:00,84.4,75.9,29.95,WSW,248,0.0,0.0,76,0.00,,,0.00,meteobridge,2016-07-26 00:56:00,
2016-07-25 21:01:00,84.0,75.6,29.95,WSW,248,0.0,0.0,76,0.00,,,0.00,meteobridge,2016-07-26 01:01:00,
2016-07-25 21:06:00,83.8,75.4,29.95,WSW,248,0.0,0.0,76,0.00,,,0.00,meteobridge,2016-07-26 01:06:00,
2016-07-25 21:11:00,83.7,75.2,29.95,WSW,248,0.0,0.0,76,0.00,,,0.00,meteobridge,2016-07-26 01:11:00,
2016-07-25 21:16:00,83.5,75.6,29.95,WSW,248,0.0,0.0,77,0.00,,,0.00,meteobridge,2016-07-26 01:16:00,
2016-07-25 21:21:00,83.3,75.7,29.95,WSW,248,0.0,0.0,78,0.00,,,0.00,meteobridge,2016-07-26 01:21:00,
2016-07-25 21:26:00,83.1,75.9,29.95,WSW,248,0.0,0.0,79,0.00,,,0.00,meteobridge,2016-07-26 01:26:00,
2016-07-25 21:31:00,83.1,75.9,29.95,WSW,248,0.0,0.0,79,0.00,,,0.00,meteobridge,2016-07-26 01:31:00,
2016-07-25 21:36:00,82.9,75.7,29.95,WSW,248,0.0,0.0,79,0.00,,,0.00,meteobridge,2016-07-26 01:36:00,
2016-07-25 21:41:00,82.8,75.6,29.95,WSW,248,0.0,0.0,79,0.00,,,0.00,meteobridge,2016-07-26 01:41:00,